Terminal Aerodrome Forecast
Issued by NWS

Home | Current Version | Previous Version | Text Only | Print | Product List | Glossary On
Versions: 1 2 3 4 5 6 7 8 9 10 11 12 13 14 15 16 17 18 19 20 21 22 23 24 25 26 27 28 29 30 31 32 33 34 35 36 37 38 39 40 41 42 43 44 45 46 47 48
421
FTUS44 KHGX 240520
TAFUTS
TAF
KUTS 240520Z 2406/2506 VRB05KT P6SM SCT015 BKN100
     FM240900 VRB03KT P6SM BKN007 BKN015
     FM241500 15005KT P6SM BKN025
     FM241800 15011KT P6SM SCT025 BKN035
     FM250200 14007KT P6SM SCT250=

USA.gov is the U.S. government's official web portal to all federal, state and local government web resources and services.